WetterOnline ( https://www.wetteronline.ch )

Wetter aktuell Freising

Aktuelles Wetter: Weihenstephan-Dürnast (478m)

6-stündlich | Neueste Meldungen
Ortszeit Temperatur Wetter
Mi, 08.07. 8:00 13.7° C wolkenlos
Mi, 08.07. 2:00 8.8° C wolkenlos
Di, 07.07. 20:00 19.0° C wolkenlos
Di, 07.07. 14:00 17.4° C wolkig
Di, 07.07. 8:00 12.9° C wolkenlos
Di, 07.07. 2:00 9.0° C wolkenlos
Mo, 06.07. 20:00 17.2° C wolkenlos
Mo, 06.07. 14:00 13.1° C Regen
Ortszeit Temperatur Wetter
Mi, 08.07. 12:30 20.9° C bedeckt
Mi, 08.07. 12:20 20.9° C bedeckt
Mi, 08.07. 12:10 21.1° C bewölkt
Mi, 08.07. 12:00 20.4° C leicht bewölkt
Mi, 08.07. 11:50 20.4° C leicht bewölkt
Mi, 08.07. 11:40 20.3° C leicht bewölkt
Mi, 08.07. 11:30 20.1° C leicht bewölkt
Mi, 08.07. 11:00 19.7° C leicht bewölkt
Mi, 08.07. 10:00 18.3° C wolkig
Mi, 08.07. 9:50 18.3° C bewölkt
Mi, 08.07. 9:30 17.2° C wolkig
Ortszeit Relative Feuchte Sichtweite
Mi, 08.07. 8:00 83% 50 km
Mi, 08.07. 2:00 93% 50 km
Di, 07.07. 20:00 44% >70 km
Di, 07.07. 14:00 47% >70 km
Di, 07.07. 8:00 68% 50 km
Di, 07.07. 2:00 88% 45 km
Mo, 06.07. 20:00 47% 65 km
Mo, 06.07. 14:00 87% 7 km
Ortszeit Relative Feuchte Sichtweite
Mi, 08.07. 12:30 47% 55 km
Mi, 08.07. 12:20 47% -
Mi, 08.07. 12:10 53% -
Mi, 08.07. 12:00 52% 50 km
Mi, 08.07. 11:50 52% -
Mi, 08.07. 11:40 50% -
Mi, 08.07. 11:30 54% 50 km
Mi, 08.07. 11:00 57% >70 km
Mi, 08.07. 10:00 60% >70 km
Mi, 08.07. 9:50 60% -
Mi, 08.07. 9:30 70% >70 km
Ortszeit Niederschlagsmenge Niederschlagsart
Mi, 08.07. 8:00 0.0 l/m2 in 12 Std. -
Mi, 08.07. 2:00 0.0 l/m2 in 6 Std. -
Di, 07.07. 20:00 0.0 l/m2 in 12 Std. -
Di, 07.07. 14:00 0.0 l/m2 in 6 Std. -
Di, 07.07. 8:00 0.0 l/m2 in 12 Std. -
Di, 07.07. 2:00 0.0 l/m2 in 6 Std. -
Mo, 06.07. 20:00 1 l/m2 in 12 Std. Regen
Mo, 06.07. 14:00 0.9 l/m2 in 6 Std. Regen
Ortszeit Niederschlagsmenge Niederschlagsart
Mi, 08.07. 12:30 0.0 l/m2 in 1 Std. -
Mi, 08.07. 12:20 keine Meldung -
Mi, 08.07. 12:10 keine Meldung -
Mi, 08.07. 12:00 0.0 l/m2 in 1 Std. -
Mi, 08.07. 11:50 keine Meldung -
Mi, 08.07. 11:40 keine Meldung -
Mi, 08.07. 11:30 0.0 l/m2 in 1 Std. -
Mi, 08.07. 11:00 0.0 l/m2 in 1 Std. -
Mi, 08.07. 10:00 0.0 l/m2 in 1 Std. -
Mi, 08.07. 9:50 keine Meldung -
Mi, 08.07. 9:30 0.0 l/m2 in 1 Std. -
Ortszeit Stärke Spitze Richtung
km/h Bft. km/h Grad Sektor
Mi, 08.07. 8:00 11 2 14 230° SW
Mi, 08.07. 2:00 4 1 14 260° W
Di, 07.07. 20:00 6 1 22 290° W
Di, 07.07. 14:00 7 2 22 340° N
Di, 07.07. 8:00 7 2 14 280° W
Di, 07.07. 2:00 4 1 36 270° W
Mo, 06.07. 20:00 22 4 47 300° NW
Mo, 06.07. 14:00 22 4 50 240° SW
Ortszeit Stärke Spitze Richtung
km/h Bft. km/h Grad Sektor
Mi, 08.07. 12:30 18 3 29 240° SW
Mi, 08.07. 12:20 18 3 - 240° SW
Mi, 08.07. 12:10 14 3 - 220° SW
Mi, 08.07. 12:00 17 3 30 250° W
Mi, 08.07. 11:50 17 3 - 250° W
Mi, 08.07. 11:40 19 3 - 250° W
Mi, 08.07. 11:30 19 3 30 260° W
Mi, 08.07. 11:00 18 3 25 270° W
Mi, 08.07. 10:00 11 2 22 250° W
Mi, 08.07. 9:50 11 2 - 250° W
Mi, 08.07. 9:30 11 2 18 250° W
Ortszeit Untergrenze Bedeckung Gattung
total tief tief mittel hoch
Mi, 08.07. 8:00 2700 m 0/8 0/8 - - -
Mi, 08.07. 2:00 - 0/8 0/8 - - -
Di, 07.07. 20:00 - 0/8 0/8 - - -
Di, 07.07. 14:00 1500 m 6/8 6/8 - - -
Di, 07.07. 8:00 - 0/8 0/8 - - -
Di, 07.07. 2:00 - 0/8 0/8 - - -
Mo, 06.07. 20:00 - 0/8 0/8 - - -
Mo, 06.07. 14:00 1500 m 8/8 8/8 - - -
Ortszeit Bedeckungsgrad in Achtel und Wolkenuntergrenze
Mi, 08.07. 12:30 7(4800m) 8(5700m) 8(6300m)
Mi, 08.07. 12:20 7(4800m) 8(5700m) 8(6300m)
Mi, 08.07. 12:10 6(4800m) 7(6000m) 7(6600m)
Mi, 08.07. 12:00 1(5400m) 3(6000m) 6(6600m)
Mi, 08.07. 11:50 1(5400m) 3(6000m)
Mi, 08.07. 11:40 2(5400m) 3(6000m)
Mi, 08.07. 11:30 3(5100m)
Mi, 08.07. 11:00 1(2700m) 8(4800m) 8(6300m)
Mi, 08.07. 10:00 7(2700m) 8(4800m)
Mi, 08.07. 9:50 7(2700m) 8(4800m)
Mi, 08.07. 9:30 4(2400m) 5(4800m) 6(9000m)
Ortszeit Luftdruck NN (hPa) Tendenz (hPa in 3 Std.)
Mi, 08.07. 8:00 1018 + 0,4
Mi, 08.07. 2:00 1020 - 0,4
Di, 07.07. 20:00 1018 - 0,9
Di, 07.07. 14:00 1020 - 0,8
Di, 07.07. 8:00 1023 + 0,5
Di, 07.07. 2:00 1023 + 0,9
Mo, 06.07. 20:00 1018 + 2,3
Mo, 06.07. 14:00 1017 + 0,9
Ortszeit Luftdruck NN (hPa) Tendenz (hPa in 3 Std.)
Mi, 08.07. 12:30 1016 - 0,7
Mi, 08.07. 12:20 1016 keine Meldung
Mi, 08.07. 12:10 1016 keine Meldung
Mi, 08.07. 12:00 1016 - 0,6
Mi, 08.07. 11:50 1016 keine Meldung
Mi, 08.07. 11:40 1017 keine Meldung
Mi, 08.07. 11:30 1017 - 0,3
Mi, 08.07. 11:00 1017 - 0,1
Mi, 08.07. 10:00 1017 + 0,1
Mi, 08.07. 9:50 1017 keine Meldung
Mi, 08.07. 9:30 1018 + 0,3
Ortszeit Schneehöhe (cm)
Mi, 08.07. 8:00 -
Mi, 08.07. 2:00 -
Di, 07.07. 20:00 -
Di, 07.07. 14:00 -
Di, 07.07. 8:00 -
Di, 07.07. 2:00 -
Mo, 06.07. 20:00 -
Mo, 06.07. 14:00 -
Ortszeit Schneehöhe (cm)
Mi, 08.07. 12:30 -
Mi, 08.07. 12:20 -
Mi, 08.07. 12:10 -
Mi, 08.07. 12:00 -
Mi, 08.07. 11:50 -
Mi, 08.07. 11:40 -
Mi, 08.07. 11:30 -
Mi, 08.07. 11:00 -
Mi, 08.07. 10:00 -
Mi, 08.07. 9:50 -
Mi, 08.07. 9:30 -
Link zu dieser Seite / Seite empfehlen

Das Wetter in ...